Time;durP1;ratioP1;P1;durP2;ratioP2;P2;SDS_P1;SDS_P2;PMS_P1;PMS_P2;Temp;Humidity;BMP_temperature;BMP_pressure;BME280_temperature;BME280_humidity;BME280_pressure;Samples;Min_cycle;Max_cycle;Signal;HPM_P1;HPM_P2
2023/10/16 00:02:24;;;;;;;1.30;1.05;;;;;;;12.69;49.38;99877.56;4363015;32;33451;-72
2023/10/16 00:04:52;;;;;;;2.17;0.57;;;;;;;12.48;49.67;99886.34;4364042;32;33889;-72
2023/10/16 00:07:22;;;;;;;0.20;0.20;;;;;;;12.82;49.02;99880.94;4376467;32;33839;-72
2023/10/16 00:09:53;;;;;;;2.00;0.73;;;;;;;12.41;52.07;99893.19;4370881;32;34603;-72
2023/10/16 00:12:22;;;;;;;1.10;0.85;;;;;;;12.69;49.94;99901.72;4372696;32;33085;-72
2023/10/16 00:14:50;;;;;;;1.12;1.05;;;;;;;12.64;49.40;99904.75;4365715;32;35203;-72
2023/10/16 00:17:21;;;;;;;1.10;0.60;;;;;;;12.52;50.34;99903.06;4365882;32;34169;-72
2023/10/16 00:19:54;;;;;;;1.20;0.82;;;;;;;12.70;49.49;99906.97;4375702;32;34952;-72
2023/10/16 00:22:21;;;;;;;8.40;1.35;;;;;;;12.48;50.36;99904.28;4370658;32;33601;-72
2023/10/16 00:24:49;;;;;;;2.35;0.40;;;;;;;12.77;49.76;99901.94;4365987;32;33643;-72
2023/10/16 00:27:16;;;;;;;0.57;0.57;;;;;;;12.95;48.86;99904.97;4358456;32;33776;-72
2023/10/16 00:29:45;;;;;;;0.45;0.45;;;;;;;13.26;47.65;99906.00;4371937;32;33400;-71
2023/10/16 00:32:12;;;;;;;1.12;0.40;;;;;;;13.36;47.40;99904.25;4379435;32;33491;-71
2023/10/16 00:34:40;;;;;;;6.10;2.30;;;;;;;13.44;46.97;99901.75;4376152;32;33805;-72
2023/10/16 00:37:08;;;;;;;0.50;0.50;;;;;;;13.43;46.91;99901.91;4379525;32;34917;-72
2023/10/16 00:39:37;;;;;;;0.52;0.43;;;;;;;13.20;47.93;99899.28;4376988;32;34261;-72
2023/10/16 00:42:08;;;;;;;1.90;1.15;;;;;;;13.43;47.33;99904.59;4365255;32;33055;-72
2023/10/16 00:44:38;;;;;;;0.30;0.30;;;;;;;13.43;47.29;99902.75;4372183;32;32560;-71
2023/10/16 00:47:09;;;;;;;0.32;0.32;;;;;;;13.40;47.43;99903.00;4363769;32;34185;-71
2023/10/16 00:49:38;;;;;;;1.35;0.85;;;;;;;13.34;47.26;99898.12;4376092;32;33785;-72
2023/10/16 00:52:06;;;;;;;1.65;0.60;;;;;;;13.39;46.86;99908.53;4368311;32;33628;-72
2023/10/16 00:54:39;;;;;;;3.90;1.62;;;;;;;13.41;47.38;99901.16;4363546;32;33683;-72
2023/10/16 00:57:10;;;;;;;0.75;0.62;;;;;;;13.40;47.48;99905.69;4376123;32;35955;-72
2023/10/16 00:59:39;;;;;;;1.62;0.95;;;;;;;13.43;46.58;99909.97;4370758;32;33612;-72
2023/10/16 01:04:40;;;;;;;2.78;1.10;;;;;;;13.19;47.53;99902.06;4374589;32;33698;-72
2023/10/16 01:07:09;;;;;;;1.45;0.88;;;;;;;13.33;46.99;99903.66;4373044;32;33688;-72
2023/10/16 01:09:39;;;;;;;1.75;0.82;;;;;;;13.42;46.67;99901.06;4365031;32;34144;-72
2023/10/16 01:12:07;;;;;;;1.87;1.05;;;;;;;13.31;46.87;99902.91;4375770;32;33165;-73
2023/10/16 01:14:36;;;;;;;1.55;0.85;;;;;;;13.35;46.81;99915.13;4371293;32;33782;-72
2023/10/16 01:17:08;;;;;;;0.62;0.55;;;;;;;13.16;48.48;99921.12;4375938;32;34023;-72
2023/10/16 01:19:37;;;;;;;4.25;1.60;;;;;;;12.87;47.86;99916.31;4367945;32;34870;-73
2023/10/16 01:22:05;;;;;;;1.55;0.65;;;;;;;12.82;48.81;99913.16;4363471;32;33100;-72
2023/10/16 01:24:32;;;;;;;0.80;0.50;;;;;;;12.83;48.29;99914.88;4374196;32;33966;-72
2023/10/16 01:27:14;;;;;;;0.30;0.30;;;;;;;12.91;47.34;99915.09;4373088;32;34611;-72
2023/10/16 01:29:42;;;;;;;0.95;0.88;;;;;;;12.94;47.32;99912.19;4365084;32;35261;-72
2023/10/16 01:32:10;;;;;;;1.30;0.90;;;;;;;12.38;48.56;99914.06;4362031;32;33248;-71
2023/10/16 01:34:41;;;;;;;3.25;1.17;;;;;;;12.22;49.97;99917.94;4370221;32;33565;-72
2023/10/16 01:37:09;;;;;;;2.85;0.90;;;;;;;11.82;51.33;99929.09;4368575;32;34056;-72
2023/10/16 01:39:49;;;;;;;2.12;0.93;;;;;;;11.52;51.58;99926.91;4371020;32;33700;-72
2023/10/16 01:42:18;;;;;;;4.00;1.73;;;;;;;11.59;50.10;99933.53;4373859;32;34416;-74
2023/10/16 01:44:51;;;;;;;1.62;1.00;;;;;;;11.61;50.42;99933.41;4372490;32;34684;-74
2023/10/16 01:47:19;;;;;;;1.23;0.98;;;;;;;11.39;51.89;99923.44;4362565;32;35179;-71
2023/10/16 01:49:50;;;;;;;0.43;0.43;;;;;;;11.46;50.84;99924.72;4369510;32;35512;-71
2023/10/16 01:52:19;;;;;;;0.77;0.77;;;;;;;11.00;53.56;99929.97;4367518;32;34693;-71
2023/10/16 01:54:48;;;;;;;0.75;0.75;;;;;;;11.04;51.41;99928.75;4374200;32;34082;-71
2023/10/16 01:57:16;;;;;;;1.15;0.52;;;;;;;10.81;54.08;99927.75;4367961;32;33971;-71
2023/10/16 01:59:45;;;;;;;2.35;0.93;;;;;;;10.24;54.45;99934.47;4372720;32;34601;-71
2023/10/16 02:02:13;;;;;;;0.65;0.60;;;;;;;10.93;54.33;99934.91;4365176;32;32932;-72
2023/10/16 02:04:42;;;;;;;0.43;0.43;;;;;;;11.41;51.23;99935.78;4374666;32;34851;-71
2023/10/16 02:07:11;;;;;;;0.50;0.50;;;;;;;11.35;51.42;99946.09;4370439;32;35195;-77
2023/10/16 02:09:40;;;;;;;0.95;0.75;;;;;;;11.91;48.88;99940.97;4369043;32;34445;-71
2023/10/16 02:12:16;;;;;;;0.98;0.88;;;;;;;11.53;51.28;99949.22;4365487;32;34094;-71
2023/10/16 02:14:46;;;;;;;1.10;1.02;;;;;;;10.69;53.51;99949.13;4374880;32;33530;-71
2023/10/16 02:17:19;;;;;;;0.65;0.60;;;;;;;11.32;51.38;99957.88;4374917;32;34037;-76
2023/10/16 02:19:48;;;;;;;0.62;0.62;;;;;;;10.87;51.71;99962.97;4370919;32;34723;-72
2023/10/16 02:22:16;;;;;;;0.88;0.70;;;;;;;11.00;53.34;99981.69;4373731;32;34494;-73
2023/10/16 02:24:48;;;;;;;1.37;1.02;;;;;;;11.18;51.56;99990.22;4373717;32;33590;-72
2023/10/16 02:27:18;;;;;;;1.17;0.85;;;;;;;11.61;52.05;99993.22;4366703;32;34058;-72
2023/10/16 02:29:49;;;;;;;1.37;1.02;;;;;;;11.82;50.28;99998.81;4366214;32;34030;-72
2023/10/16 02:32:17;;;;;;;2.72;1.37;;;;;;;12.21;49.97;99993.22;4367245;32;34575;-73
2023/10/16 02:34:44;;;;;;;0.65;0.43;;;;;;;12.52;48.34;99989.84;4363575;32;33533;-70
2023/10/16 02:37:14;;;;;;;1.33;1.05;;;;;;;12.10;50.42;99992.22;4372078;32;33832;-72
2023/10/16 02:39:50;;;;;;;1.87;0.40;;;;;;;12.48;48.49;99998.25;4369336;32;34045;-72
2023/10/16 02:42:19;;;;;;;4.68;1.73;;;;;;;12.41;50.71;99991.66;4369441;32;34092;-72
2023/10/16 02:44:47;;;;;;;1.40;0.95;;;;;;;12.89;47.26;99992.28;4361793;32;34804;-72
2023/10/16 02:47:28;;;;;;;0.55;0.55;;;;;;;13.07;46.87;99981.88;4372704;32;35010;-72
2023/10/16 02:49:58;;;;;;;0.68;0.68;;;;;;;13.18;45.96;99979.16;4361110;32;34025;-72
2023/10/16 02:52:26;;;;;;;3.30;0.68;;;;;;;13.17;45.97;99972.09;4372911;32;33146;-71
2023/10/16 02:54:57;;;;;;;0.40;0.40;;;;;;;13.27;45.79;99980.28;4369154;32;34571;-72
2023/10/16 02:57:27;;;;;;;0.60;0.60;;;;;;;13.24;45.57;99970.63;4364426;32;35165;-72
2023/10/16 02:59:56;;;;;;;0.75;0.60;;;;;;;13.32;45.47;99969.97;4375389;32;35250;-72
2023/10/16 03:02:27;;;;;;;1.75;0.65;;;;;;;13.31;45.16;99980.88;4595991;27;33385;-72
2023/10/16 03:05:10;;;;;;;0.60;0.60;;;;;;;13.29;44.87;99975.66;4404014;32;33997;-73
2023/10/16 03:07:44;;;;;;;1.45;1.27;;;;;;;13.24;44.71;99986.75;4406630;32;35242;-73
2023/10/16 03:10:13;;;;;;;1.65;1.08;;;;;;;13.15;45.11;99984.78;4392230;32;34615;-73
2023/10/16 03:12:42;;;;;;;1.27;0.77;;;;;;;13.16;45.09;99996.38;4404688;32;32970;-73
2023/10/16 03:15:27;;;;;;;2.83;1.83;;;;;;;13.22;45.36;99999.41;4404438;32;33826;-73
2023/10/16 03:17:55;;;;;;;2.10;0.52;;;;;;;13.05;45.73;100010.69;4402861;32;33889;-73
2023/10/16 03:20:24;;;;;;;0.30;0.30;;;;;;;13.15;45.87;100005.44;4405015;32;34139;-73
2023/10/16 03:22:51;;;;;;;2.37;1.25;;;;;;;13.04;47.46;100019.75;4404023;32;33634;-73
2023/10/16 03:25:30;;;;;;;1.02;0.77;;;;;;;13.10;47.19;100010.31;4405601;32;34732;-78
2023/10/16 03:27:59;;;;;;;0.65;0.65;;;;;;;13.09;46.91;100004.09;4387417;32;32694;-75
2023/10/16 03:30:28;;;;;;;1.23;0.85;;;;;;;12.49;46.95;100008.03;4404658;32;33732;-75
2023/10/16 03:33:03;;;;;;;0.88;0.82;;;;;;;12.98;46.62;100004.97;4403963;32;31794;-75
2023/10/16 03:35:31;;;;;;;1.25;0.65;;;;;;;12.77;47.85;100004.84;4404868;32;33933;-75
2023/10/16 03:37:59;;;;;;;0.30;0.30;;;;;;;12.64;47.86;100001.44;4407221;32;33900;-75
2023/10/16 03:40:27;;;;;;;0.82;0.60;;;;;;;12.92;46.33;100021.59;4408319;32;34909;-75
2023/10/16 03:42:55;;;;;;;1.83;0.85;;;;;;;13.14;46.06;100027.94;4407153;32;34185;-75
2023/10/16 03:45:23;;;;;;;0.70;0.60;;;;;;;13.21;45.72;100021.91;4407208;32;33856;-75
2023/10/16 03:47:57;;;;;;;1.17;0.95;;;;;;;13.22;45.71;100042.44;4408095;32;34134;-75
2023/10/16 03:50:26;;;;;;;0.98;0.77;;;;;;;13.24;45.93;100039.63;4406946;32;33908;-75
2023/10/16 03:52:56;;;;;;;1.95;0.93;;;;;;;13.23;45.14;100037.94;4407239;32;33204;-75
2023/10/16 03:55:27;;;;;;;1.23;0.62;;;;;;;13.21;45.06;100039.88;4404954;32;34686;-74
2023/10/16 03:57:55;;;;;;;0.60;0.60;;;;;;;13.04;46.06;100033.19;4404945;32;34220;-75
2023/10/16 04:00:26;;;;;;;1.35;0.73;;;;;;;13.07;45.86;100037.47;4405164;32;34694;-75
2023/10/16 04:02:59;;;;;;;1.58;0.65;;;;;;;13.09;46.35;100035.50;4404346;32;33350;-75
2023/10/16 04:05:29;;;;;;;0.98;0.85;;;;;;;12.98;46.57;100031.00;4406147;32;33810;-72
2023/10/16 04:07:57;;;;;;;0.82;0.50;;;;;;;12.89;46.75;100037.09;4406906;32;35344;-73
2023/10/16 04:10:28;;;;;;;0.40;0.40;;;;;;;12.98;45.92;100025.62;4394021;32;34819;-73
2023/10/16 04:12:57;;;;;;;2.15;0.60;;;;;;;12.85;47.25;100036.50;4406962;32;33589;-72
2023/10/16 04:18:05;;;;;;;1.12;0.85;;;;;;;12.81;46.88;100035.88;4402769;32;34112;-73
2023/10/16 04:20:45;;;;;;;1.17;0.77;;;;;;;12.77;47.23;100025.50;4406602;32;33926;-73
2023/10/16 04:23:37;;;;;;;1.55;1.20;;;;;;;12.74;47.40;100018.53;4405641;32;33138;-73
2023/10/16 04:37:29;;;;;;;1.05;0.57;;;;;;;12.68;46.99;100013.66;4355895;32;32305;-72
2023/10/16 04:45:24;;;;;;;2.08;1.02;;;;;;;12.32;48.98;100026.28;4359627;32;33102;-72
2023/10/16 04:53:11;;;;;;;3.30;1.37;;;;;;;12.48;47.67;100019.72;4352861;32;33485;-73
2023/10/16 05:15:20;;;;;;;1.05;0.82;;;;;;;12.15;50.00;100029.44;4342585;32;33920;-71
2023/10/16 05:17:46;;;;;;;0.57;0.57;;;;;;;12.15;49.67;100021.38;4341860;33;33084;-71
2023/10/16 06:15:55;;;;;;;1.85;1.02;;;;;;;12.31;48.13;100105.09;4318997;33;33950;-71
2023/10/16 06:18:27;;;;;;;1.55;1.08;;;;;;;12.38;47.91;100101.97;4327313;33;33649;-71
2023/10/16 06:20:55;;;;;;;0.55;0.50;;;;;;;12.51;47.12;100103.56;4328267;32;32945;-73
2023/10/16 06:23:22;;;;;;;0.85;0.75;;;;;;;12.47;48.03;100112.84;4341419;32;33255;-72
2023/10/16 06:25:50;;;;;;;4.85;1.27;;;;;;;12.68;47.79;100106.78;4324870;33;34549;-72
2023/10/16 06:28:18;;;;;;;1.35;1.05;;;;;;;12.74;49.68;100117.03;4395030;32;33770;-71
2023/10/16 06:30:46;;;;;;;0.70;0.70;;;;;;;13.03;47.30;100115.63;4402375;32;33834;-71
2023/10/16 06:33:18;;;;;;;1.27;0.88;;;;;;;12.57;48.11;100113.00;4402673;32;34148;-71
2023/10/16 06:35:47;;;;;;;2.17;1.33;;;;;;;12.67;47.78;100113.97;4405120;32;33459;-71
2023/10/16 06:38:20;;;;;;;1.98;1.15;;;;;;;12.69;48.06;100114.72;4403308;32;33765;-70
2023/10/16 06:40:52;;;;;;;1.35;0.60;;;;;;;11.93;48.85;100112.50;4404569;32;34950;-71
2023/10/16 06:43:25;;;;;;;3.70;1.25;;;;;;;12.40;48.91;100102.72;4370954;32;33126;-71
2023/10/16 06:45:55;;;;;;;3.60;1.48;;;;;;;11.73;51.11;100106.75;4369053;32;34700;-73
2023/10/16 06:48:27;;;;;;;4.15;1.67;;;;;;;12.59;48.50;100111.91;4374254;32;34177;-71
2023/10/16 06:51:03;;;;;;;1.83;1.17;;;;;;;12.77;48.51;100114.97;4372902;32;33877;-71
2023/10/16 06:53:33;;;;;;;0.85;0.82;;;;;;;12.95;47.93;100126.13;4370988;32;33604;-71
2023/10/16 06:56:02;;;;;;;5.97;1.15;;;;;;;12.01;49.76;100123.53;4371510;32;35558;-73
2023/10/16 06:58:31;;;;;;;0.90;0.68;;;;;;;12.11;50.79;100125.41;4368820;32;35008;-71
2023/10/16 07:00:58;;;;;;;1.27;0.77;;;;;;;12.28;49.17;100140.22;4368476;32;34161;-72
2023/10/16 07:03:28;;;;;;;3.42;0.68;;;;;;;12.21;48.62;100138.13;4368136;32;34194;-72
2023/10/16 07:05:57;;;;;;;1.40;1.02;;;;;;;12.18;48.46;100139.22;4369340;32;33887;-72
2023/10/16 07:08:25;;;;;;;1.73;1.15;;;;;;;11.97;50.00;100151.53;4373641;32;34042;-73
2023/10/16 07:10:56;;;;;;;1.12;1.02;;;;;;;12.43;49.03;100156.16;4372667;32;33387;-73
2023/10/16 07:13:27;;;;;;;1.40;1.17;;;;;;;12.70;48.68;100150.50;4372479;32;32795;-75
2023/10/16 07:16:00;;;;;;;1.33;1.15;;;;;;;12.68;48.34;100158.69;4373077;32;34505;-74
2023/10/16 07:18:32;;;;;;;1.08;0.57;;;;;;;12.48;48.30;100153.97;4342699;32;33149;-73
2023/10/16 07:23:35;;;;;;;4.18;1.75;;;;;;;12.97;47.88;100158.22;4371494;32;33481;-73
2023/10/16 07:26:04;;;;;;;1.55;1.05;;;;;;;13.11;47.90;100167.91;4365169;32;33717;-72
2023/10/16 07:28:32;;;;;;;2.05;1.20;;;;;;;13.81;45.31;100159.59;4369308;32;34746;-71
2023/10/16 07:31:02;;;;;;;0.80;0.73;;;;;;;14.11;45.12;100166.97;4369345;32;36568;-71
2023/10/16 07:33:32;;;;;;;1.52;1.20;;;;;;;14.09;43.88;100170.78;4364892;32;33523;-71
2023/10/16 07:35:59;;;;;;;1.20;0.55;;;;;;;13.83;45.96;100164.84;4365452;32;33710;-71
2023/10/16 07:38:28;;;;;;;4.68;0.95;;;;;;;14.26;44.80;100161.31;4368384;32;35256;-74
2023/10/16 07:40:59;;;;;;;1.75;0.68;;;;;;;14.41;44.48;100165.41;4333595;32;33175;-73
2023/10/16 07:43:29;;;;;;;2.65;1.25;;;;;;;14.42;43.86;100170.66;4348019;32;33059;-72
2023/10/16 07:48:51;;;;;;;3.90;1.15;;;;;;;13.97;44.11;100189.66;4340883;32;33776;-73
2023/10/16 07:51:21;;;;;;;1.35;0.75;;;;;;;13.96;44.38;100190.66;4373133;32;34242;-73
2023/10/16 07:53:49;;;;;;;2.17;0.85;;;;;;;13.82;43.91;100187.38;4369925;32;34387;-73
2023/10/16 07:59:10;;;;;;;1.83;0.60;;;;;;;14.41;42.51;100189.63;4371827;32;34105;-74
2023/10/16 08:01:53;;;;;;;1.55;0.73;;;;;;;13.99;45.20;100190.38;4369420;32;33704;-74
2023/10/16 08:06:52;;;;;;;0.57;0.57;;;;;;;14.53;43.41;100180.56;4370587;32;33713;-75
2023/10/16 08:11:57;;;;;;;1.55;0.93;;;;;;;14.32;44.25;100182.34;4367852;32;33535;-76
2023/10/16 08:14:26;;;;;;;1.12;0.93;;;;;;;13.76;45.62;100180.63;4372094;32;33344;-75
2023/10/16 08:17:04;;;;;;;1.83;1.00;;;;;;;14.32;44.03;100174.28;4369782;32;33838;-76
2023/10/16 08:19:34;;;;;;;0.90;0.70;;;;;;;14.36;44.73;100178.41;4370102;32;33934;-75
2023/10/16 08:22:09;;;;;;;1.92;1.30;;;;;;;14.44;43.14;100170.53;4357402;32;33446;-73
2023/10/16 08:24:43;;;;;;;2.87;1.27;;;;;;;14.64;42.66;100164.38;4365816;32;33307;-72
2023/10/16 08:30:17;;;;;;;0.80;0.52;;;;;;;14.06;43.14;100179.97;4365158;32;33925;-71
2023/10/16 08:35:22;;;;;;;1.20;0.93;;;;;;;13.14;46.52;100190.03;4367148;32;33526;-72
2023/10/16 08:37:59;;;;;;;2.72;0.65;;;;;;;13.92;43.87;100186.47;4370429;32;33829;-69
2023/10/16 08:40:34;;;;;;;8.20;2.05;;;;;;;13.75;44.09;100181.62;4368973;32;35231;-68
2023/10/16 08:43:08;;;;;;;4.40;0.93;;;;;;;14.39;43.24;100187.09;4363112;32;33871;-68
2023/10/16 08:45:48;;;;;;;0.60;0.60;;;;;;;14.21;42.49;100181.38;4370634;32;33412;-69
2023/10/16 08:48:21;;;;;;;2.00;1.27;;;;;;;14.03;43.01;100193.69;4366296;32;33610;-68
2023/10/16 08:50:52;;;;;;;13.25;1.17;;;;;;;13.64;44.53;100192.38;4385616;32;33556;-68
2023/10/16 08:53:32;;;;;;;2.33;0.62;;;;;;;14.24;42.64;100192.91;4406411;32;34623;-67
2023/10/16 08:56:08;;;;;;;3.00;0.60;;;;;;;13.04;44.61;100191.72;4402644;32;33229;-68
2023/10/16 08:58:40;;;;;;;;;;;;;;;13.23;44.70;100189.31;4405211;32;33932;-68
2023/10/16 09:01:09;;;;;;;3.72;1.27;;;;;;;13.69;42.40;100180.28;4400930;32;35226;-67
2023/10/16 09:03:39;;;;;;;1.67;0.50;;;;;;;13.24;44.27;100185.66;4402461;32;33628;-68
2023/10/16 09:06:07;;;;;;;1.35;0.65;;;;;;;12.87;44.64;100178.72;4391435;32;33006;-67
2023/10/16 09:08:35;;;;;;;1.23;0.98;;;;;;;13.02;42.62;100182.91;4402088;32;33526;-67
2023/10/16 09:11:06;;;;;;;4.07;1.17;;;;;;;13.55;42.96;100177.88;4403078;32;35084;-67
2023/10/16 09:13:36;;;;;;;1.40;1.12;;;;;;;12.85;46.03;100178.00;4390112;32;33564;-69
2023/10/16 09:16:11;;;;;;;1.95;1.55;;;;;;;12.96;44.11;100183.41;4406527;32;33584;-69
2023/10/16 09:18:39;;;;;;;5.32;1.90;;;;;;;13.57;42.54;100178.56;4402572;32;35873;-68
2023/10/16 09:21:13;;;;;;;3.25;0.65;;;;;;;13.00;43.14;100183.06;4402452;32;33908;-68
2023/10/16 09:23:42;;;;;;;0.88;0.68;;;;;;;12.93;43.63;100183.63;4397636;32;34325;-68
2023/10/16 09:26:14;;;;;;;1.85;1.40;;;;;;;13.14;41.98;100183.81;4371370;32;34827;-68
2023/10/16 09:28:41;;;;;;;2.60;1.15;;;;;;;12.85;42.26;100184.25;4368086;32;33529;-68
2023/10/16 09:31:10;;;;;;;0.52;0.50;;;;;;;13.01;42.54;100191.97;4370734;32;34603;-68
2023/10/16 09:33:39;;;;;;;0.85;0.85;;;;;;;12.56;43.41;100190.00;4366905;32;33731;-68
2023/10/16 09:36:23;;;;;;;3.50;1.70;;;;;;;13.26;42.01;100189.09;4361505;32;34083;-67
2023/10/16 09:38:51;;;;;;;0.55;0.55;;;;;;;13.98;40.40;100180.59;4355819;32;33940;-69
2023/10/16 09:49:13;;;;;;;0.80;0.47;;;;;;;13.25;41.43;100167.69;4355005;32;34016;-69
2023/10/16 09:51:44;;;;;;;0.70;0.68;;;;;;;13.55;39.91;100169.78;4358534;32;33998;-69
2023/10/16 09:54:31;;;;;;;0.40;0.40;;;;;;;13.33;40.73;100157.22;4359425;32;34257;-69
2023/10/16 09:56:59;;;;;;;0.93;0.85;;;;;;;13.94;40.03;100154.06;4357440;32;32921;-70
2023/10/16 09:59:38;;;;;;;6.40;1.85;;;;;;;12.96;42.31;100156.53;4352457;32;33127;-69
2023/10/16 10:02:09;;;;;;;1.65;1.50;;;;;;;13.30;42.11;100159.28;4358102;32;35199;-73
2023/10/16 10:04:43;;;;;;;0.93;0.70;;;;;;;13.50;41.86;100163.91;4347559;32;33614;-69
2023/10/16 10:07:18;;;;;;;1.30;0.77;;;;;;;13.96;41.68;100158.34;4355252;32;34255;-69
2023/10/16 10:09:48;;;;;;;6.35;1.05;;;;;;;13.61;42.05;100158.53;4372361;32;33372;-68
2023/10/16 10:12:37;;;;;;;1.02;0.68;;;;;;;14.39;39.39;100152.06;4364993;32;33905;-70
2023/10/16 10:15:12;;;;;;;2.10;0.82;;;;;;;14.08;40.01;100159.16;4362895;32;34005;-74
2023/10/16 10:17:42;;;;;;;2.37;1.65;;;;;;;13.93;40.12;100141.59;4373084;32;34519;-70
2023/10/16 10:23:08;;;;;;;1.62;1.05;;;;;;;13.95;39.35;100155.78;4287297;33;33600;-71
2023/10/16 10:25:37;;;;;;;0.98;0.80;;;;;;;14.36;39.02;100154.19;4286661;33;34570;-70
2023/10/16 10:28:15;;;;;;;1.02;0.52;;;;;;;14.33;38.40;100141.81;4279639;33;34048;-69
2023/10/16 10:30:45;;;;;;;0.73;0.65;;;;;;;13.91;39.29;100136.34;4303791;33;35689;-69
2023/10/16 10:33:33;;;;;;;1.27;0.80;;;;;;;14.40;38.59;100136.78;4298767;33;35166;-69
2023/10/16 10:36:34;;;;;;;1.23;0.70;;;;;;;14.40;39.61;100140.31;4294401;33;36506;-69
2023/10/16 10:39:21;;;;;;;1.02;0.77;;;;;;;14.61;39.52;100126.06;4295859;33;32845;-69
2023/10/16 10:41:55;;;;;;;1.08;0.60;;;;;;;14.95;37.83;100121.28;4297452;33;35063;-69
2023/10/16 10:44:54;;;;;;;1.33;0.70;;;;;;;15.13;37.58;100114.28;4293813;33;34086;-68
2023/10/16 10:47:30;;;;;;;1.50;0.62;;;;;;;15.43;36.82;100114.41;4281169;33;33657;-69
2023/10/16 10:50:12;;;;;;;1.12;0.57;;;;;;;15.18;38.46;100110.31;4282594;33;33203;-68
2023/10/16 10:52:41;;;;;;;4.82;0.77;;;;;;;15.27;38.09;100104.97;4307443;33;34691;-69
2023/10/16 10:55:18;;;;;;;2.05;1.00;;;;;;;14.76;38.95;100091.53;4311827;33;34133;-69
2023/10/16 10:57:47;;;;;;;2.08;0.88;;;;;;;14.76;38.27;100105.00;4306199;33;33732;-69
2023/10/16 11:05:33;;;;;;;1.15;0.90;;;;;;;15.81;36.05;100084.00;4356797;32;33271;-68
2023/10/16 11:10:41;;;;;;;3.60;1.40;;;;;;;15.09;37.04;100088.59;4348898;32;33497;-68
2023/10/16 11:13:11;;;;;;;0.55;0.52;;;;;;;15.24;37.87;100080.97;4351089;32;33482;-69
2023/10/16 11:16:00;;;;;;;0.30;0.30;;;;;;;15.61;37.24;100080.38;4343922;33;34211;-69
2023/10/16 11:18:30;;;;;;;4.03;1.62;;;;;;;15.07;37.66;100076.25;4335649;32;34957;-68
2023/10/16 11:21:04;;;;;;;0.40;0.40;;;;;;;14.94;37.40;100089.09;4350010;32;33173;-69
2023/10/16 11:23:38;;;;;;;2.17;1.05;;;;;;;14.56;38.08;100074.41;4340995;32;33991;-69
2023/10/16 11:26:12;;;;;;;4.15;0.65;;;;;;;14.67;38.98;100077.91;4396762;32;35503;-69
2023/10/16 11:28:40;;;;;;;2.12;0.68;;;;;;;15.46;36.60;100063.72;4401170;32;33710;-68
2023/10/16 11:31:10;;;;;;;0.60;0.57;;;;;;;15.13;36.59;100073.84;4401665;32;33017;-69
2023/10/16 11:34:00;;;;;;;1.00;0.95;;;;;;;14.96;37.19;100081.69;4403082;32;33129;-69
2023/10/16 11:36:29;;;;;;;1.75;0.75;;;;;;;15.41;36.21;100075.91;4402196;32;34986;-68
2023/10/16 11:39:07;;;;;;;1.75;0.85;;;;;;;15.11;36.55;100073.12;4401796;32;34897;-69
2023/10/16 11:41:36;;;;;;;0.52;0.52;;;;;;;15.86;35.67;100064.66;4406474;32;34069;-69
2023/10/16 11:44:14;;;;;;;4.75;0.82;;;;;;;16.03;35.24;100062.12;4399945;32;35210;-69
2023/10/16 11:46:44;;;;;;;1.05;0.60;;;;;;;15.29;37.00;100065.25;4402838;32;33755;-69
2023/10/16 11:49:21;;;;;;;1.30;0.80;;;;;;;15.12;37.51;100071.31;4403418;32;33850;-69
2023/10/16 11:51:57;;;;;;;3.17;0.93;;;;;;;15.38;35.82;100066.28;4402210;32;34174;-68
2023/10/16 11:54:28;;;;;;;13.35;1.37;;;;;;;15.89;35.28;100049.06;4395089;32;33845;-68
2023/10/16 11:56:59;;;;;;;3.03;0.77;;;;;;;15.65;36.63;100051.28;4402883;32;34128;-68
2023/10/16 11:59:28;;;;;;;1.85;0.77;;;;;;;15.53;36.70;100054.09;4402749;32;33976;-67
2023/10/16 12:01:59;;;;;;;0.20;0.20;;;;;;;15.66;36.27;100063.78;4382681;32;33556;-67
2023/10/16 12:04:31;;;;;;;4.70;1.60;;;;;;;15.58;34.83;100054.53;4391307;32;33597;-66
2023/10/16 12:07:00;;;;;;;1.20;0.85;;;;;;;15.88;35.06;100041.94;4389259;32;36233;-66
2023/10/16 12:09:36;;;;;;;1.02;0.52;;;;;;;16.01;34.61;100052.47;4385270;32;33752;-66
2023/10/16 12:12:06;;;;;;;1.52;0.90;;;;;;;15.68;35.41;100059.12;4390683;32;34146;-67
2023/10/16 12:14:39;;;;;;;6.57;1.42;;;;;;;15.96;34.06;100052.06;4388918;32;34346;-67
2023/10/16 12:17:11;;;;;;;0.30;0.30;;;;;;;16.25;33.95;100054.75;4392325;32;35121;-67
2023/10/16 12:19:40;;;;;;;2.53;0.75;;;;;;;16.40;34.07;100053.28;4382681;32;32657;-67
2023/10/16 12:22:08;;;;;;;0.47;0.47;;;;;;;16.30;34.04;100044.34;4383314;32;34298;-68
2023/10/16 12:24:38;;;;;;;3.08;0.95;;;;;;;16.15;33.99;100045.81;4381177;32;35188;-69
2023/10/16 12:27:06;;;;;;;1.23;0.95;;;;;;;16.55;33.57;100048.28;4384200;32;34152;-69
2023/10/16 12:29:34;;;;;;;2.95;1.80;;;;;;;16.07;34.22;100047.34;4381635;32;33672;-69
2023/10/16 12:32:03;;;;;;;0.77;0.60;;;;;;;15.81;34.91;100041.66;4378738;32;33861;-69
2023/10/16 12:34:33;;;;;;;2.10;1.05;;;;;;;15.61;35.66;100042.62;4381667;32;34698;-70
2023/10/16 12:37:06;;;;;;;2.25;1.35;;;;;;;15.77;36.15;100039.41;4378814;32;33900;-70
2023/10/16 12:39:45;;;;;;;1.95;0.95;;;;;;;15.81;34.94;100047.06;4377372;32;33624;-69
2023/10/16 12:42:13;;;;;;;1.17;0.80;;;;;;;15.47;36.21;100043.84;4376806;32;32991;-70
2023/10/16 12:44:43;;;;;;;1.33;0.80;;;;;;;16.39;34.75;100038.09;4381657;32;34724;-69
2023/10/16 12:47:12;;;;;;;1.42;0.70;;;;;;;16.52;34.45;100037.78;4367516;32;33840;-69
2023/10/16 12:49:58;;;;;;;1.92;0.77;;;;;;;16.61;33.76;100028.78;4380853;32;33884;-69
2023/10/16 12:52:29;;;;;;;0.80;0.73;;;;;;;16.59;33.32;100043.44;4390665;32;34801;-69
2023/10/16 12:55:00;;;;;;;0.62;0.47;;;;;;;16.33;33.65;100038.66;4389118;32;33878;-68
2023/10/16 12:57:28;;;;;;;13.43;0.88;;;;;;;16.23;33.92;100041.38;4388190;32;34049;-70
2023/10/16 12:59:56;;;;;;;1.87;0.68;;;;;;;16.47;33.34;100042.78;4389044;32;33355;-70
2023/10/16 13:02:27;;;;;;;2.47;0.65;;;;;;;16.40;33.37;100042.47;4397470;32;34173;-70
2023/10/16 13:04:55;;;;;;;1.55;0.95;;;;;;;16.65;33.36;100043.72;4389909;32;33723;-69
2023/10/16 13:07:26;;;;;;;1.50;0.98;;;;;;;16.47;32.59;100046.31;4403841;32;35282;-69
2023/10/16 13:10:14;;;;;;;1.23;0.85;;;;;;;16.41;32.48;100032.56;4402292;32;32147;-68
2023/10/16 13:12:44;;;;;;;1.90;0.80;;;;;;;16.42;33.21;100037.78;4407200;32;33373;-69
2023/10/16 13:15:15;;;;;;;6.37;0.55;;;;;;;16.09;33.91;100027.47;4405947;32;33732;-70
2023/10/16 13:17:48;;;;;;;0.65;0.30;;;;;;;16.44;33.70;100029.56;4403169;32;33807;-70
2023/10/16 13:20:19;;;;;;;0.80;0.50;;;;;;;16.56;33.31;100025.66;4398801;32;33350;-70
2023/10/16 13:22:49;;;;;;;0.98;0.55;;;;;;;16.88;33.60;100029.88;4402530;32;34309;-68
2023/10/16 13:25:18;;;;;;;1.80;1.02;;;;;;;16.28;34.03;100025.59;4405153;32;35098;-70
2023/10/16 13:27:46;;;;;;;1.52;0.80;;;;;;;16.45;34.34;100029.41;4402604;32;34946;-68
2023/10/16 13:30:16;;;;;;;0.50;0.50;;;;;;;15.87;34.26;100026.75;4403059;32;34711;-70
2023/10/16 13:32:48;;;;;;;1.45;0.57;;;;;;;16.50;33.70;100027.13;4410426;32;34517;-69
2023/10/16 13:35:18;;;;;;;1.70;0.65;;;;;;;16.30;33.18;100022.75;4398223;32;33730;-69
2023/10/16 13:37:47;;;;;;;3.22;0.93;;;;;;;16.90;31.68;100027.88;4401688;32;33669;-69
2023/10/16 13:40:24;;;;;;;3.67;0.93;;;;;;;16.71;31.62;100018.78;4404171;32;34186;-68
2023/10/16 13:42:54;;;;;;;2.05;0.95;;;;;;;16.92;32.21;100021.31;4401451;32;33463;-69
2023/10/16 13:45:23;;;;;;;0.37;0.30;;;;;;;16.92;32.96;100018.62;4402360;32;33926;-70
2023/10/16 13:47:50;;;;;;;0.30;0.30;;;;;;;17.02;32.09;100024.00;4405683;32;34042;-69
2023/10/16 13:50:24;;;;;;;2.05;0.57;;;;;;;16.45;33.20;100023.16;4405328;32;34684;-69
2023/10/16 13:52:52;;;;;;;1.30;0.73;;;;;;;16.64;33.33;100022.25;4409451;32;33215;-69
2023/10/16 13:55:30;;;;;;;1.12;0.43;;;;;;;16.84;32.83;100023.06;4406072;32;34764;-69
2023/10/16 13:57:58;;;;;;;5.25;2.35;;;;;;;17.00;32.47;100018.72;4401899;32;34327;-69
2023/10/16 14:00:35;;;;;;;0.57;0.50;;;;;;;16.87;32.25;100015.50;4399930;32;33700;-69
2023/10/16 14:08:37;;;;;;;1.05;0.70;;;;;;;17.09;30.43;100011.56;4353912;32;33832;-69
2023/10/16 14:11:11;;;;;;;0.93;0.65;;;;;;;16.96;30.56;100003.78;4353295;32;34977;-69
2023/10/16 14:13:42;;;;;;;0.95;0.73;;;;;;;17.26;30.06;100004.50;4354390;32;32898;-68